Time;durP1;ratioP1;P1;durP2;ratioP2;P2;SDS_P1;SDS_P2;PMS_P1;PMS_P2;Temp;Humidity;BMP_temperature;BMP_pressure;BME280_temperature;BME280_humidity;BME280_pressure;Samples;Min_cycle;Max_cycle;Signal;HPM_P1;HPM_P2
2022/06/02 00:00:10;;;;;;;2.33;2.00;;;;;;;;;;5054299;28;20229;-84
2022/06/02 00:02:41;;;;;;;2.67;2.20;;;;;;;;;;5054527;28;20316;-85
2022/06/02 00:05:14;;;;;;;1.97;1.70;;;;;;;;;;5053885;28;20303;-84
2022/06/02 00:07:50;;;;;;;3.13;2.00;;;;;;;;;;5053975;28;20198;-84
2022/06/02 00:10:22;;;;;;;3.47;1.80;;;;;;;;;;5053658;28;20234;-84
2022/06/02 00:12:54;;;;;;;2.13;1.90;;;;;;;;;;5054254;28;20237;-84
2022/06/02 00:15:26;;;;;;;2.30;2.20;;;;;;;;;;5053573;28;20240;-84
2022/06/02 00:17:57;;;;;;;2.20;2.00;;;;;;;;;;5054382;28;20190;-84
2022/06/02 00:20:27;;;;;;;2.27;2.07;;;;;;;;;;5053847;28;20246;-83
2022/06/02 00:23:05;;;;;;;5.27;2.10;;;;;;;;;;5053633;28;20226;-83
2022/06/02 00:25:36;;;;;;;2.50;2.10;;;;;;;;;;5053908;28;20233;-84
2022/06/02 00:28:07;;;;;;;2.00;1.90;;;;;;;;;;5054096;28;20206;-84
2022/06/02 00:30:37;;;;;;;2.30;2.10;;;;;;;;;;5053406;28;20256;-84
2022/06/02 00:33:17;;;;;;;3.03;1.97;;;;;;;;;;5052446;28;20289;-85
2022/06/02 00:35:48;;;;;;;2.87;1.90;;;;;;;;;;5053042;28;20234;-85
2022/06/02 00:38:18;;;;;;;3.03;1.97;;;;;;;;;;5053907;28;20662;-84
2022/06/02 00:40:46;;;;;;;2.00;1.90;;;;;;;;;;5052970;28;20673;-85
2022/06/02 00:43:27;;;;;;;4.67;2.40;;;;;;;;;;5053112;28;20824;-84
2022/06/02 00:45:58;;;;;;;5.20;2.10;;;;;;;;;;5053056;28;20291;-85
2022/06/02 00:48:29;;;;;;;2.43;1.97;;;;;;;;;;5058361;28;20198;-84
2022/06/02 00:50:59;;;;;;;2.00;1.90;;;;;;;;;;5054225;28;20226;-84
2022/06/02 00:53:38;;;;;;;2.40;2.20;;;;;;;;;;5053492;28;20233;-85
2022/06/02 00:59:01;;;;;;;2.73;2.20;;;;;;;;;;5057704;28;20180;-84
2022/06/02 01:01:30;;;;;;;2.23;2.03;;;;;;;;;;5072918;28;20237;-84
2022/06/02 01:03:58;;;;;;;2.73;2.00;;;;;;;;;;5072479;28;20236;-84
2022/06/02 01:06:33;;;;;;;3.27;2.00;;;;;;;;;;5073067;28;20301;-83
2022/06/02 01:09:13;;;;;;;3.93;1.97;;;;;;;;;;5071778;28;20256;-84
2022/06/02 01:11:44;;;;;;;2.27;2.03;;;;;;;;;;5054348;28;20237;-85
2022/06/02 01:14:18;;;;;;;2.20;2.10;;;;;;;;;;5054044;28;20807;-83
2022/06/02 01:16:50;;;;;;;2.20;2.00;;;;;;;;;;5052641;28;20233;-84
2022/06/02 01:19:30;;;;;;;2.50;2.10;;;;;;;;;;5052882;28;20693;-83
2022/06/02 01:22:17;;;;;;;2.30;2.20;;;;;;;;;;5051954;28;20249;-84
2022/06/02 01:24:54;;;;;;;2.50;2.30;;;;;;;;;;5051911;28;20261;-84
2022/06/02 01:27:39;;;;;;;2.40;2.20;;;;;;;;;;5052783;28;20216;-83
2022/06/02 01:30:20;;;;;;;3.90;2.37;;;;;;;;;;5051553;28;20242;-84
2022/06/02 01:32:52;;;;;;;4.53;2.73;;;;;;;;;;5052400;28;20212;-84
2022/06/02 01:35:25;;;;;;;3.13;2.00;;;;;;;;;;5051953;28;20233;-83
2022/06/02 01:37:53;;;;;;;6.77;2.30;;;;;;;;;;5052253;28;20210;-84
2022/06/02 01:40:30;;;;;;;3.67;2.53;;;;;;;;;;5051970;28;20237;-84
2022/06/02 01:42:58;;;;;;;2.07;1.90;;;;;;;;;;5052288;28;20229;-84
2022/06/02 01:45:35;;;;;;;4.87;2.47;;;;;;;;;;5051645;28;20234;-83
2022/06/02 01:48:09;;;;;;;2.50;2.30;;;;;;;;;;5052317;28;20217;-83
2022/06/02 01:50:40;;;;;;;2.80;2.17;;;;;;;;;;5052006;28;20236;-83
2022/06/02 01:53:14;;;;;;;2.17;2.07;;;;;;;;;;5052103;28;20320;-83
2022/06/02 01:55:56;;;;;;;2.40;2.20;;;;;;;;;;5051767;28;20268;-84
2022/06/02 01:58:32;;;;;;;2.30;2.17;;;;;;;;;;5052063;28;20206;-84
2022/06/02 02:01:03;;;;;;;2.43;2.23;;;;;;;;;;5052755;28;20229;-85
2022/06/02 02:03:36;;;;;;;2.60;2.40;;;;;;;;;;5051910;28;20384;-83
2022/06/02 02:06:08;;;;;;;2.60;2.40;;;;;;;;;;5051474;28;20708;-83
2022/06/02 02:08:41;;;;;;;2.67;2.30;;;;;;;;;;5052080;28;20205;-84
2022/06/02 02:11:16;;;;;;;2.53;2.30;;;;;;;;;;5051410;28;20244;-84
2022/06/02 02:13:50;;;;;;;4.83;2.80;;;;;;;;;;5051793;28;20728;-83
2022/06/02 02:16:21;;;;;;;2.40;2.27;;;;;;;;;;5053821;28;20240;-83
2022/06/02 02:18:58;;;;;;;2.57;2.33;;;;;;;;;;5057154;28;20206;-83
2022/06/02 02:21:29;;;;;;;2.60;2.40;;;;;;;;;;5053476;28;20237;-84
2022/06/02 02:24:04;;;;;;;2.60;2.40;;;;;;;;;;5051417;28;20238;-84
2022/06/02 02:26:34;;;;;;;2.43;2.23;;;;;;;;;;5051543;28;20259;-83
2022/06/02 02:29:06;;;;;;;2.40;2.20;;;;;;;;;;5051956;28;20209;-83
2022/06/02 02:31:39;;;;;;;2.30;2.20;;;;;;;;;;5051499;28;20240;-83
2022/06/02 02:34:12;;;;;;;2.83;2.47;;;;;;;;;;5052352;28;20226;-83
2022/06/02 02:36:43;;;;;;;3.53;2.50;;;;;;;;;;5053607;28;20238;-84
2022/06/02 02:39:15;;;;;;;4.70;2.30;;;;;;;;;;5054249;28;20209;-84
2022/06/02 02:41:44;;;;;;;2.83;2.13;;;;;;;;;;5052607;28;20244;-84
2022/06/02 02:44:15;;;;;;;2.53;2.33;;;;;;;;;;5052509;28;20236;-83
2022/06/02 02:46:46;;;;;;;3.20;2.40;;;;;;;;;;5057102;28;20229;-84
2022/06/02 02:49:17;;;;;;;2.50;2.30;;;;;;;;;;5057718;28;20197;-85
2022/06/02 02:51:49;;;;;;;2.37;2.13;;;;;;;;;;5054617;28;20229;-84
2022/06/02 02:54:21;;;;;;;2.20;2.10;;;;;;;;;;5051619;28;20222;-84
2022/06/02 02:56:51;;;;;;;2.30;2.20;;;;;;;;;;5052680;28;20238;-84
2022/06/02 02:59:21;;;;;;;2.20;2.10;;;;;;;;;;5055367;28;20217;-82
2022/06/02 03:01:51;;;;;;;2.60;2.40;;;;;;;;;;5054942;28;20226;-82
2022/06/02 03:04:27;;;;;;;2.17;2.07;;;;;;;;;;5054733;28;20229;-82
2022/06/02 03:06:54;;;;;;;2.50;2.30;;;;;;;;;;5054646;28;20233;-82
2022/06/02 03:09:24;;;;;;;2.90;2.50;;;;;;;;;;5055369;28;20206;-83
2022/06/02 03:12:00;;;;;;;2.63;2.43;;;;;;;;;;5054935;28;20615;-82
2022/06/02 03:14:42;;;;;;;7.63;2.43;;;;;;;;;;5055150;28;20218;-82
2022/06/02 03:17:16;;;;;;;4.07;2.40;;;;;;;;;;5052064;28;20232;-83
2022/06/02 03:19:47;;;;;;;2.47;2.27;;;;;;;;;;5054801;28;20216;-83
2022/06/02 03:22:18;;;;;;;3.23;2.20;;;;;;;;;;5055024;28;20206;-84
2022/06/02 03:24:49;;;;;;;3.57;2.40;;;;;;;;;;5053861;28;20230;-83
2022/06/02 03:27:21;;;;;;;3.43;2.37;;;;;;;;;;5055086;28;20202;-84
2022/06/02 03:29:53;;;;;;;2.63;2.43;;;;;;;;;;5054268;28;20207;-84
2022/06/02 03:32:25;;;;;;;3.33;2.43;;;;;;;;;;5055175;28;20233;-84
2022/06/02 03:34:56;;;;;;;2.43;2.27;;;;;;;;;;5053958;28;20242;-84
2022/06/02 03:37:39;;;;;;;2.50;2.30;;;;;;;;;;5054419;28;20670;-84
2022/06/02 03:40:20;;;;;;;2.80;2.47;;;;;;;;;;5054209;28;20238;-84
2022/06/02 03:42:49;;;;;;;3.30;2.40;;;;;;;;;;5038501;28;20202;-83
2022/06/02 03:45:23;;;;;;;3.80;2.30;;;;;;;;;;5050263;28;20238;-84
2022/06/02 03:48:05;;;;;;;3.50;2.67;;;;;;;;;;5055459;28;20202;-83
2022/06/02 03:50:49;;;;;;;2.93;2.73;;;;;;;;;;5054030;28;20237;-83
2022/06/02 03:53:23;;;;;;;3.57;2.70;;;;;;;;;;5047761;28;20217;-82
2022/06/02 03:55:57;;;;;;;3.33;2.37;;;;;;;;;;5062271;28;20251;-82
2022/06/02 03:58:36;;;;;;;2.50;2.40;;;;;;;;;;5039537;28;20198;-83
2022/06/02 04:01:06;;;;;;;3.50;2.57;;;;;;;;;;5050956;28;20229;-82
2022/06/02 04:03:40;;;;;;;3.47;2.60;;;;;;;;;;5053563;28;20701;-83
2022/06/02 04:06:15;;;;;;;4.30;2.70;;;;;;;;;;5052936;28;20325;-82
2022/06/02 04:08:53;;;;;;;3.73;2.57;;;;;;;;;;5051733;28;20218;-83
2022/06/02 04:13:37;;;;;;;2.60;2.40;;;;;;;;;;5051969;28;20226;-80
2022/06/02 04:14:23;;;;;;;4.73;2.60;;;;;;;;;;5054473;28;20230;-82
2022/06/02 04:16:57;;;;;;;3.77;2.70;;;;;;;;;;5055297;28;20241;-82
2022/06/02 04:22:43;;;;;;;2.33;2.23;;;;;;;;;;4991597;28;20806;-82
2022/06/02 04:25:20;;;;;;;4.23;2.60;;;;;;;;;;5040718;28;20405;-82
2022/06/02 04:27:50;;;;;;;4.20;3.00;;;;;;;;;;5053044;28;20267;-81
2022/06/02 04:30:21;;;;;;;3.00;2.80;;;;;;;;;;5052743;28;20238;-81
2022/06/02 04:32:53;;;;;;;3.27;2.83;;;;;;;;;;5053025;28;20241;-81
2022/06/02 04:35:34;;;;;;;2.77;2.57;;;;;;;;;;5052454;28;20247;-81
2022/06/02 04:38:09;;;;;;;2.93;2.73;;;;;;;;;;5055112;28;20206;-82
2022/06/02 04:40:44;;;;;;;3.00;2.80;;;;;;;;;;5053973;28;20240;-80
2022/06/02 04:43:15;;;;;;;3.23;2.73;;;;;;;;;;5054467;28;20236;-80
2022/06/02 04:45:47;;;;;;;5.77;3.10;;;;;;;;;;5052779;28;20237;-81
2022/06/02 04:48:18;;;;;;;3.20;2.83;;;;;;;;;;5052312;28;20617;-81
2022/06/02 04:50:47;;;;;;;3.33;3.00;;;;;;;;;;5051514;28;20230;-81
2022/06/02 04:53:21;;;;;;;5.83;3.47;;;;;;;;;;5052006;28;20233;-81
2022/06/02 04:55:54;;;;;;;3.43;3.13;;;;;;;;;;5052169;28;20257;-81
2022/06/02 04:58:25;;;;;;;3.53;3.23;;;;;;;;;;5052372;28;20249;-83
2022/06/02 05:00:57;;;;;;;3.73;3.43;;;;;;;;;;5052079;28;20609;-81
2022/06/02 05:03:29;;;;;;;3.73;3.43;;;;;;;;;;5052001;28;20234;-83
2022/06/02 05:06:08;;;;;;;3.47;3.27;;;;;;;;;;5052175;28;20717;-81
2022/06/02 05:08:49;;;;;;;3.57;3.30;;;;;;;;;;5053777;28;20190;-81
2022/06/02 05:11:21;;;;;;;5.27;3.70;;;;;;;;;;5052445;28;20233;-81
2022/06/02 05:13:55;;;;;;;4.07;3.60;;;;;;;;;;5052626;28;20226;-81
2022/06/02 05:16:26;;;;;;;4.93;4.03;;;;;;;;;;5053302;28;20238;-81
2022/06/02 05:19:07;;;;;;;5.13;3.80;;;;;;;;;;5052825;28;20209;-81
2022/06/02 05:21:46;;;;;;;4.00;3.70;;;;;;;;;;5052986;28;20315;-81
2022/06/02 05:24:35;;;;;;;4.90;4.50;;;;;;;;;;5045515;28;20269;-81
2022/06/02 05:27:20;;;;;;;4.70;4.30;;;;;;;;;;5045936;28;20241;-81
2022/06/02 05:29:58;;;;;;;4.43;4.07;;;;;;;;;;5051678;28;20248;-81
2022/06/02 05:32:43;;;;;;;5.53;4.37;;;;;;;;;;5047518;28;20206;-81
2022/06/02 05:35:28;;;;;;;3.20;3.00;;;;;;;;;;5030829;28;20242;-80
2022/06/02 05:38:03;;;;;;;4.20;3.57;;;;;;;;;;5051219;28;20684;-81
2022/06/02 05:40:37;;;;;;;4.90;3.93;;;;;;;;;;5052534;28;20233;-82
2022/06/02 05:43:11;;;;;;;5.27;4.20;;;;;;;;;;5052446;28;20827;-81
2022/06/02 05:45:48;;;;;;;4.73;4.00;;;;;;;;;;5052403;28;20253;-82
2022/06/02 05:48:31;;;;;;;4.27;3.80;;;;;;;;;;5051714;28;20213;-81
2022/06/02 05:51:02;;;;;;;4.10;3.70;;;;;;;;;;5050274;28;20241;-82
2022/06/02 05:53:37;;;;;;;4.37;3.50;;;;;;;;;;5056157;28;20224;-80
2022/06/02 05:56:08;;;;;;;4.70;3.50;;;;;;;;;;5060233;28;20232;-81
2022/06/02 05:58:50;;;;;;;5.17;3.20;;;;;;;;;;5073246;28;20209;-81
2022/06/02 06:01:23;;;;;;;4.73;2.93;;;;;;;;;;5058133;28;20225;-81
2022/06/02 06:04:17;;;;;;;3.70;3.27;;;;;;;;;;5072302;28;20584;-81
2022/06/02 06:06:45;;;;;;;5.77;3.27;;;;;;;;;;5036817;28;20241;-81
2022/06/02 06:09:15;;;;;;;7.40;3.60;;;;;;;;;;5073315;28;20206;-81
2022/06/02 06:11:59;;;;;;;3.10;2.90;;;;;;;;;;5073477;28;20236;-81
2022/06/02 06:14:31;;;;;;;3.93;3.20;;;;;;;;;;5074568;28;20225;-81
2022/06/02 06:17:02;;;;;;;3.40;3.00;;;;;;;;;;5075096;28;20713;-81
2022/06/02 06:19:39;;;;;;;3.37;3.13;;;;;;;;;;5073879;28;20205;-81
2022/06/02 06:22:16;;;;;;;5.20;2.90;;;;;;;;;;5060400;28;20237;-81
2022/06/02 06:25:02;;;;;;;3.60;3.30;;;;;;;;;;5054765;28;20260;-81
2022/06/02 06:27:34;;;;;;;7.27;3.07;;;;;;;;;;5056982;28;20247;-80
2022/06/02 06:30:05;;;;;;;3.40;3.20;;;;;;;;;;5055356;28;20593;-80
2022/06/02 06:32:38;;;;;;;3.60;3.30;;;;;;;;;;5059350;28;20206;-80
2022/06/02 06:35:13;;;;;;;3.30;3.00;;;;;;;;;;5058732;28;20246;-80
2022/06/02 06:38:07;;;;;;;5.47;3.20;;;;;;;;;;5060503;28;20551;-81
2022/06/02 06:40:43;;;;;;;3.60;3.30;;;;;;;;;;5013727;28;20270;-81
2022/06/02 06:43:16;;;;;;;3.43;3.17;;;;;;;;;;5064999;28;20264;-80
2022/06/02 06:45:45;;;;;;;4.90;3.03;;;;;;;;;;5068929;28;20230;-81
2022/06/02 06:48:15;;;;;;;3.20;2.90;;;;;;;;;;5069111;28;20230;-80
2022/06/02 06:50:50;;;;;;;5.67;3.70;;;;;;;;;;5073297;28;20230;-81
2022/06/02 06:53:21;;;;;;;3.57;3.37;;;;;;;;;;5087249;28;20220;-80
2022/06/02 06:55:52;;;;;;;4.07;3.70;;;;;;;;;;5081819;28;20633;-80
2022/06/02 06:58:26;;;;;;;4.80;4.07;;;;;;;;;;5082051;28;20232;-80
2022/06/02 07:00:57;;;;;;;4.90;3.97;;;;;;;;;;5082498;28;20248;-81
2022/06/02 07:03:27;;;;;;;6.43;3.80;;;;;;;;;;5079753;28;20229;-81
2022/06/02 07:05:57;;;;;;;5.70;3.50;;;;;;;;;;5079310;28;20237;-81
2022/06/02 07:08:30;;;;;;;6.80;3.63;;;;;;;;;;5077033;28;20658;-81
2022/06/02 07:11:03;;;;;;;4.17;3.77;;;;;;;;;;5066545;28;20233;-81
2022/06/02 07:13:33;;;;;;;3.77;3.47;;;;;;;;;;5075327;28;20230;-80
2022/06/02 07:16:03;;;;;;;3.93;3.40;;;;;;;;;;5062650;28;20232;-80
2022/06/02 07:18:35;;;;;;;4.20;3.60;;;;;;;;;;5061323;28;20209;-80
2022/06/02 07:21:05;;;;;;;5.45;3.70;;;;;;;;;;5052130;28;20285;-80
2022/06/02 07:23:41;;;;;;;4.00;3.60;;;;;;;;;;5061200;28;20239;-81
2022/06/02 07:26:13;;;;;;;3.60;3.28;;;;;;;;;;5057802;28;20232;-81
2022/06/02 07:28:48;;;;;;;4.55;3.85;;;;;;;;;;5057966;28;20210;-80
2022/06/02 07:31:33;;;;;;;5.25;3.55;;;;;;;;;;5057625;28;20248;-80
2022/06/02 07:34:06;;;;;;;4.18;3.78;;;;;;;;;;5057525;28;20229;-81
2022/06/02 07:36:54;;;;;;;4.22;3.22;;;;;;;;;;5056150;28;20234;-81
2022/06/02 07:39:37;;;;;;;5.25;3.50;;;;;;;;;;5044399;28;20210;-81
2022/06/02 07:42:08;;;;;;;3.50;3.20;;;;;;;;;;5056669;28;20245;-81
2022/06/02 07:44:43;;;;;;;4.15;3.38;;;;;;;;;;5056262;28;20253;-81
2022/06/02 07:47:23;;;;;;;3.85;3.47;;;;;;;;;;5056938;28;20216;-82
2022/06/02 07:49:55;;;;;;;4.18;3.33;;;;;;;;;;5056305;28;20210;-81
2022/06/02 07:52:27;;;;;;;5.18;3.40;;;;;;;;;;5057429;28;20205;-82
2022/06/02 07:55:00;;;;;;;4.50;3.33;;;;;;;;;;5052726;28;20246;-82
2022/06/02 07:57:34;;;;;;;4.35;3.33;;;;;;;;;;5053069;28;20202;-83
2022/06/02 08:00:14;;;;;;;4.70;3.30;;;;;;;;;;5052351;28;20233;-83
2022/06/02 08:02:46;;;;;;;3.75;3.15;;;;;;;;;;5053480;28;20237;-83
2022/06/02 08:05:19;;;;;;;3.33;3.13;;;;;;;;;;5052766;28;20252;-83
2022/06/02 08:07:52;;;;;;;4.68;3.33;;;;;;;;;;5052983;28;20197;-83
2022/06/02 08:10:22;;;;;;;4.78;2.92;;;;;;;;;;5052207;28;20643;-83
2022/06/02 08:12:56;;;;;;;5.95;3.15;;;;;;;;;;5052826;28;20585;-82
2022/06/02 08:15:33;;;;;;;4.82;3.38;;;;;;;;;;5052146;28;20257;-84
2022/06/02 08:18:05;;;;;;;4.75;3.40;;;;;;;;;;5052715;28;20217;-83
2022/06/02 08:20:42;;;;;;;4.70;3.28;;;;;;;;;;5063025;28;20237;-83
2022/06/02 08:23:12;;;;;;;3.55;2.83;;;;;;;;;;5064198;28;20265;-83
2022/06/02 08:25:42;;;;;;;3.38;3.08;;;;;;;;;;5052240;28;20332;-81
2022/06/02 08:28:30;;;;;;;4.03;2.83;;;;;;;;;;5055938;28;20209;-81
2022/06/02 08:31:01;;;;;;;4.15;2.85;;;;;;;;;;5050968;28;20237;-82
2022/06/02 08:33:38;;;;;;;3.38;2.95;;;;;;;;;;5052311;28;20229;-81
2022/06/02 08:36:10;;;;;;;4.85;2.72;;;;;;;;;;5051520;28;20248;-81
2022/06/02 08:38:43;;;;;;;2.90;2.63;;;;;;;;;;5052570;28;20300;-80
2022/06/02 08:41:31;;;;;;;3.03;2.83;;;;;;;;;;5032428;28;20239;-80
2022/06/02 08:44:23;;;;;;;5.38;2.75;;;;;;;;;;5032251;28;20285;-79
2022/06/02 08:47:05;;;;;;;2.70;2.50;;;;;;;;;;5033039;28;20273;-80
2022/06/02 08:49:47;;;;;;;2.60;2.38;;;;;;;;;;5033482;28;20206;-80
2022/06/02 08:52:32;;;;;;;2.95;2.70;;;;;;;;;;5030639;28;20297;-80
2022/06/02 08:55:30;;;;;;;2.80;2.47;;;;;;;;;;5030865;28;20230;-81
2022/06/02 08:58:18;;;;;;;4.38;2.30;;;;;;;;;;5032652;28;20191;-81
2022/06/02 09:00:49;;;;;;;2.92;2.25;;;;;;;;;;5036085;28;20462;-81
2022/06/02 09:03:25;;;;;;;1.90;1.80;;;;;;;;;;5060066;28;20278;-81
2022/06/02 09:06:12;;;;;;;2.35;2.20;;;;;;;;;;5070894;28;20244;-81
2022/06/02 09:09:00;;;;;;;2.13;1.98;;;;;;;;;;5066332;28;20193;-81
2022/06/02 09:11:33;;;;;;;2.28;2.17;;;;;;;;;;5050524;28;20240;-81
2022/06/02 09:14:28;;;;;;;2.05;1.92;;;;;;;;;;5045473;28;20305;-81
2022/06/02 09:16:59;;;;;;;4.55;2.17;;;;;;;;;;5031540;28;20452;-81
2022/06/02 09:19:36;;;;;;;2.78;2.50;;;;;;;;;;5036959;28;20207;-80
2022/06/02 09:22:05;;;;;;;2.70;2.28;;;;;;;;;;5050249;28;20253;-80
2022/06/02 09:24:36;;;;;;;2.50;2.15;;;;;;;;;;5058133;28;20244;-80
2022/06/02 09:27:21;;;;;;;3.08;2.20;;;;;;;;;;5057135;28;20238;-80
2022/06/02 09:29:50;;;;;;;3.08;2.10;;;;;;;;;;5053113;28;20457;-80
2022/06/02 09:32:24;;;;;;;3.25;1.95;;;;;;;;;;5057253;28;20206;-80
2022/06/02 09:34:55;;;;;;;2.28;2.00;;;;;;;;;;5056291;28;20233;-80
2022/06/02 09:37:27;;;;;;;2.17;1.98;;;;;;;;;;5060767;28;20213;-80
2022/06/02 09:40:05;;;;;;;3.35;2.20;;;;;;;;;;5074458;28;20260;-80
2022/06/02 09:43:02;;;;;;;2.03;1.88;;;;;;;;;;5077854;28;20201;-80
2022/06/02 09:45:40;;;;;;;2.75;1.90;;;;;;;;;;5077734;28;20244;-80
2022/06/02 09:48:17;;;;;;;2.20;2.00;;;;;;;;;;5076447;28;20204;-81
2022/06/02 09:50:59;;;;;;;2.30;1.67;;;;;;;;;;5077041;28;20627;-80
2022/06/02 09:53:42;;;;;;;1.60;1.50;;;;;;;;;;5075277;28;20270;-80
2022/06/02 09:56:20;;;;;;;1.58;1.45;;;;;;;;;;5062169;28;20244;-80
2022/06/02 09:58:55;;;;;;;3.67;1.95;;;;;;;;;;5068849;28;20202;-81
2022/06/02 10:01:37;;;;;;;5.10;2.30;;;;;;;;;;5070277;28;20228;-81
2022/06/02 10:04:23;;;;;;;2.60;2.40;;;;;;;;;;5066813;28;20221;-80
2022/06/02 10:07:05;;;;;;;2.80;2.58;;;;;;;;;;5072474;28;20232;-81
2022/06/02 10:09:39;;;;;;;2.38;2.17;;;;;;;;;;5071755;28;20205;-81
2022/06/02 10:15:13;;;;;;;2.22;2.10;;;;;;;;;;5047891;28;20247;-81
2022/06/02 10:17:49;;;;;;;3.75;2.58;;;;;;;;;;5086310;28;20259;-80
2022/06/02 10:20:26;;;;;;;2.28;1.70;;;;;;;;;;5085112;28;20244;-81
2022/06/02 10:23:00;;;;;;;6.75;2.20;;;;;;;;;;5085461;28;20209;-81
2022/06/02 10:25:38;;;;;;;2.45;2.10;;;;;;;;;;5085093;28;20240;-81
2022/06/02 10:28:17;;;;;;;2.60;2.10;;;;;;;;;;5085718;28;20216;-81
2022/06/02 10:30:58;;;;;;;4.05;1.98;;;;;;;;;;5085707;28;20232;-81
2022/06/02 10:33:49;;;;;;;1.70;1.60;;;;;;;;;;5080922;28;20436;-81
2022/06/02 10:36:41;;;;;;;2.00;1.90;;;;;;;;;;5000544;28;20699;-82
2022/06/02 10:39:19;;;;;;;4.43;2.28;;;;;;;;;;5077133;28;20206;-81
2022/06/02 10:42:00;;;;;;;1.92;1.70;;;;;;;;;;5075861;28;20633;-81
2022/06/02 10:44:38;;;;;;;1.80;1.70;;;;;;;;;;5078839;28;20240;-82
2022/06/02 10:47:15;;;;;;;1.70;1.60;;;;;;;;;;5077913;28;20220;-81
2022/06/02 10:49:45;;;;;;;1.73;1.55;;;;;;;;;;5077485;28;20201;-81
2022/06/02 10:52:39;;;;;;;2.55;2.35;;;;;;;;;;5077695;28;20210;-82
2022/06/02 10:55:19;;;;;;;1.50;1.40;;;;;;;;;;5075353;28;20241;-83
2022/06/02 10:57:58;;;;;;;3.95;1.45;;;;;;;;;;5075689;28;20630;-81
2022/06/02 11:00:32;;;;;;;2.22;1.63;;;;;;;;;;5076596;28;20251;-82
2022/06/02 11:03:27;;;;;;;1.90;1.80;;;;;;;;;;5070927;28;20201;-81
2022/06/02 11:06:13;;;;;;;3.38;1.60;;;;;;;;;;5063365;28;20234;-82
2022/06/02 11:08:53;;;;;;;3.17;1.75;;;;;;;;;;5064680;28;20206;-82
2022/06/02 11:11:34;;;;;;;1.50;1.40;;;;;;;;;;5064979;28;20241;-82
2022/06/02 11:14:18;;;;;;;2.30;1.35;;;;;;;;;;5058801;28;20229;-81
2022/06/02 11:17:12;;;;;;;2.72;1.60;;;;;;;;;;5055360;28;20229;-82
2022/06/02 11:19:59;;;;;;;2.45;1.60;;;;;;;;;;5058462;28;20212;-82
2022/06/02 11:22:41;;;;;;;1.52;1.30;;;;;;;;;;5060866;28;20210;-82
2022/06/02 11:25:16;;;;;;;1.80;1.70;;;;;;;;;;5056139;28;20238;-81
2022/06/02 11:27:51;;;;;;;1.95;1.85;;;;;;;;;;5056550;28;20205;-81
2022/06/02 11:30:51;;;;;;;1.50;1.40;;;;;;;;;;5056650;28;20655;-80
2022/06/02 11:33:30;;;;;;;4.18;2.10;;;;;;;;;;5056409;28;20717;-80
2022/06/02 11:36:16;;;;;;;1.45;1.35;;;;;;;;;;5056199;28;20295;-80
2022/06/02 11:38:49;;;;;;;2.95;1.50;;;;;;;;;;5057136;28;20206;-80
2022/06/02 11:41:31;;;;;;;1.77;1.48;;;;;;;;;;5057111;28;20636;-81
2022/06/02 11:44:07;;;;;;;1.25;1.15;;;;;;;;;;5054868;28;20701;-80
2022/06/02 11:46:49;;;;;;;1.70;1.27;;;;;;;;;;5058091;28;20249;-81
2022/06/02 11:49:33;;;;;;;1.55;1.10;;;;;;;;;;5046046;28;20214;-81
2022/06/02 11:52:06;;;;;;;1.17;1.17;;;;;;;;;;5059208;28;20260;-81
2022/06/02 11:54:48;;;;;;;1.30;1.20;;;;;;;;;;5059141;28;20313;-81
2022/06/02 11:57:34;;;;;;;1.55;1.10;;;;;;;;;;5057370;28;20264;-81
2022/06/02 12:00:14;;;;;;;4.03;1.40;;;;;;;;;;5058518;28;20233;-81
2022/06/02 12:03:05;;;;;;;2.63;1.52;;;;;;;;;;5058653;28;20343;-81
2022/06/02 12:05:41;;;;;;;1.63;1.20;;;;;;;;;;4984836;28;20442;-81
2022/06/02 12:08:32;;;;;;;4.63;1.20;;;;;;;;;;5059852;28;20712;-80
2022/06/02 12:11:10;;;;;;;1.40;1.10;;;;;;;;;;5058561;28;20237;-81
2022/06/02 12:13:54;;;;;;;3.75;1.90;;;;;;;;;;5058730;28;20240;-80
2022/06/02 12:16:40;;;;;;;2.38;1.65;;;;;;;;;;5058387;28;20234;-81
2022/06/02 12:19:21;;;;;;;1.80;1.27;;;;;;;;;;5059581;28;20713;-80
2022/06/02 12:22:06;;;;;;;1.35;1.10;;;;;;;;;;5058521;28;20237;-81
2022/06/02 12:24:49;;;;;;;1.33;1.20;;;;;;;;;;5056519;28;20640;-83
2022/06/02 12:27:49;;;;;;;1.23;1.23;;;;;;;;;;5053743;28;20265;-83
2022/06/02 12:30:25;;;;;;;1.20;1.20;;;;;;;;;;4971244;28;20924;-83
2022/06/02 12:33:07;;;;;;;1.30;1.20;;;;;;;;;;4972359;28;20208;-83
2022/06/02 12:35:49;;;;;;;1.20;1.17;;;;;;;;;;5021414;28;20752;-82
2022/06/02 12:38:30;;;;;;;1.02;1.00;;;;;;;;;;5053901;28;20198;-82
2022/06/02 12:41:06;;;;;;;1.63;1.10;;;;;;;;;;5057281;28;20245;-82
2022/06/02 12:43:54;;;;;;;1.45;1.08;;;;;;;;;;5064344;28;20221;-82
2022/06/02 12:46:32;;;;;;;0.95;0.93;;;;;;;;;;5027881;28;20230;-82
2022/06/02 12:49:17;;;;;;;1.40;1.30;;;;;;;;;;5063062;28;20209;-83
2022/06/02 12:51:56;;;;;;;1.55;1.10;;;;;;;;;;5064326;28;20244;-82
2022/06/02 12:54:56;;;;;;;1.50;0.95;;;;;;;;;;5063285;28;20252;-83
2022/06/02 12:57:49;;;;;;;2.40;0.93;;;;;;;;;;5054132;28;20210;-83
2022/06/02 13:00:34;;;;;;;0.98;0.98;;;;;;;;;;5053867;28;20234;-82
2022/06/02 13:03:20;;;;;;;1.85;0.90;;;;;;;;;;5053379;28;20206;-82
2022/06/02 13:05:58;;;;;;;3.55;1.00;;;;;;;;;;5053548;28;20253;-82
2022/06/02 13:08:40;;;;;;;0.90;0.90;;;;;;;;;;5053490;28;20209;-83
2022/06/02 13:11:32;;;;;;;0.73;0.73;;;;;;;;;;5052772;28;20233;-83
2022/06/02 13:14:32;;;;;;;5.28;1.10;;;;;;;;;;4997192;28;20243;-83
2022/06/02 13:17:06;;;;;;;2.20;0.65;;;;;;;;;;4992356;28;20235;-83
2022/06/02 13:19:39;;;;;;;2.80;0.90;;;;;;;;;;4992543;28;20299;-82
2022/06/02 13:22:15;;;;;;;1.52;0.70;;;;;;;;;;5026005;28;20316;-83
2022/06/02 13:25:01;;;;;;;0.80;0.80;;;;;;;;;;5053348;28;20717;-84
2022/06/02 13:27:40;;;;;;;0.80;0.70;;;;;;;;;;5055062;28;20237;-84
2022/06/02 13:30:31;;;;;;;0.52;0.52;;;;;;;;;;5054699;28;20249;-84
2022/06/02 13:33:13;;;;;;;0.60;0.60;;;;;;;;;;5039638;28;20210;-83
2022/06/02 13:35:58;;;;;;;0.77;0.60;;;;;;;;;;5054391;28;20248;-82
2022/06/02 13:38:48;;;;;;;0.40;0.40;;;;;;;;;;5054396;28;20214;-85
2022/06/02 13:41:25;;;;;;;0.95;0.70;;;;;;;;;;5054612;28;20236;-83
2022/06/02 13:44:02;;;;;;;1.48;0.50;;;;;;;;;;5055254;28;20229;-83
2022/06/02 13:46:37;;;;;;;0.63;0.63;;;;;;;;;;5054909;28;20736;-82
2022/06/02 13:49:21;;;;;;;1.27;0.73;;;;;;;;;;5055779;28;20236;-83
2022/06/02 13:52:02;;;;;;;0.52;0.52;;;;;;;;;;5054908;28;20242;-83
2022/06/02 13:57:50;;;;;;;0.70;0.70;;;;;;;;;;5055316;28;20256;-84
2022/06/02 14:00:20;;;;;;;1.85;0.80;;;;;;;;;;5053294;28;20254;-83
2022/06/02 14:03:09;;;;;;;2.88;0.82;;;;;;;;;;5054212;28;20589;-83
2022/06/02 14:06:05;;;;;;;1.65;0.80;;;;;;;;;;5052578;28;20709;-84
2022/06/02 14:08:41;;;;;;;0.50;0.50;;;;;;;;;;5052832;28;20202;-83
2022/06/02 14:11:17;;;;;;;0.95;0.73;;;;;;;;;;5055369;28;20242;-84
2022/06/02 14:13:59;;;;;;;0.65;0.63;;;;;;;;;;5055476;28;20221;-83
2022/06/02 14:16:30;;;;;;;0.77;0.77;;;;;;;;;;5049198;28;20244;-83
2022/06/02 14:19:13;;;;;;;1.70;0.60;;;;;;;;;;5051460;28;20210;-82
2022/06/02 14:21:46;;;;;;;2.10;0.70;;;;;;;;;;5055206;28;20264;-83
2022/06/02 14:24:15;;;;;;;0.65;0.65;;;;;;;;;;5051272;28;20309;-83
2022/06/02 14:26:51;;;;;;;0.98;0.80;;;;;;;;;;5052079;28;20609;-83
2022/06/02 14:29:25;;;;;;;1.35;0.70;;;;;;;;;;5054236;28;20229;-82
2022/06/02 14:31:58;;;;;;;0.80;0.80;;;;;;;;;;5052080;28;20316;-84
2022/06/02 14:34:29;;;;;;;1.17;0.77;;;;;;;;;;5059976;28;20241;-85
2022/06/02 14:37:00;;;;;;;1.30;0.75;;;;;;;;;;5057752;28;20340;-83
2022/06/02 14:39:33;;;;;;;2.47;1.10;;;;;;;;;;5053790;28;20222;-84
2022/06/02 14:42:16;;;;;;;3.10;0.75;;;;;;;;;;5051443;28;20222;-86
2022/06/02 14:44:48;;;;;;;1.20;0.63;;;;;;;;;;5051084;28;20226;-84
2022/06/02 14:47:22;;;;;;;0.80;0.80;;;;;;;;;;5052329;28;20600;-86
2022/06/02 14:50:03;;;;;;;1.92;0.95;;;;;;;;;;5051613;28;20219;-85
2022/06/02 14:52:39;;;;;;;2.55;0.80;;;;;;;;;;5053057;28;20670;-85
2022/06/02 14:55:10;;;;;;;1.10;1.00;;;;;;;;;;5067227;28;20237;-83
2022/06/02 14:57:47;;;;;;;0.93;0.77;;;;;;;;;;5079104;28;20190;-82
2022/06/02 15:00:22;;;;;;;0.73;0.73;;;;;;;;;;5077651;28;20228;-83
2022/06/02 15:03:17;;;;;;;0.85;0.85;;;;;;;;;;5077194;28;20210;-83
2022/06/02 15:05:53;;;;;;;0.85;0.75;;;;;;;;;;5038913;28;20608;-81
2022/06/02 15:08:35;;;;;;;5.60;1.27;;;;;;;;;;5076363;28;20198;-83
2022/06/02 15:11:07;;;;;;;2.30;0.80;;;;;;;;;;5045051;28;20229;-84
2022/06/02 15:13:52;;;;;;;0.80;0.80;;;;;;;;;;5055276;28;20222;-83
2022/06/02 15:16:36;;;;;;;1.77;0.77;;;;;;;;;;5055045;28;20261;-85
2022/06/02 15:19:13;;;;;;;0.80;0.80;;;;;;;;;;5055237;28;20221;-84
2022/06/02 15:21:47;;;;;;;0.90;0.90;;;;;;;;;;5054840;28;20237;-85
2022/06/02 15:24:25;;;;;;;0.70;0.70;;;;;;;;;;5055804;28;20221;-85
2022/06/02 15:27:06;;;;;;;0.77;0.70;;;;;;;;;;5055496;28;20264;-85
2022/06/02 15:29:42;;;;;;;2.38;0.70;;;;;;;;;;5055972;28;20217;-85
2022/06/02 15:32:22;;;;;;;2.78;1.20;;;;;;;;;;5056264;28;20253;-85
2022/06/02 15:35:09;;;;;;;0.82;0.80;;;;;;;;;;5062731;28;20237;-85
2022/06/02 15:38:00;;;;;;;2.33;0.70;;;;;;;;;;5055651;28;20189;-85
2022/06/02 15:40:41;;;;;;;0.93;0.80;;;;;;;;;;5035094;28;20240;-85
2022/06/02 15:43:19;;;;;;;1.65;0.88;;;;;;;;;;5055601;28;20240;-86
2022/06/02 15:46:01;;;;;;;0.90;0.90;;;;;;;;;;5054628;28;20236;-83
2022/06/02 15:48:49;;;;;;;3.13;0.90;;;;;;;;;;5070643;28;20239;-82
2022/06/02 15:51:32;;;;;;;1.58;0.98;;;;;;;;;;5075247;28;20226;-83
2022/06/02 15:54:18;;;;;;;1.05;0.85;;;;;;;;;;5075092;28;20245;-83